LKCH weather

Chomutov Airfield
Chomutov, Ústí nad Labem Region, Czech Republic

Public forecast

Using degrees Celsius for public forecast. Weather courtesy of forecast.io.

Closest aviation weather report (METAR) to Chomutov Airfield

Closest report is Karlovy Vary International Airport, 26.5 nm (49.1 km) SW. Retrieved 2019/12/07 18:30 UTC (12 minutes ago):

LKKV 071830Z 25008KT 210V280 9999 SCT013 BKN045 04/02 Q1014

Closest aviation forecast (TAF) to Chomutov Airfield

Closest forecast is Karlovy Vary International Airport, 26.5 nm (49.1 km) SW. Retrieved 2019/12/07 18:05 UTC (37 minutes ago):

TAF LKKV 071700Z 0718/0900 25010KT 9999 SCT014 BKN030 TEMPO 0718/0900 5000 -SHRA SCT004 BKN009